EPKT/KTW METAR and TAF weather

Enter ICAO airport designator
Station Type Date Time Source
EPKT METAR 2020/09/18 22:30 UTC NOAA

EPKT 182230Z VRB01KT CAVOK 03/03 Q1028


Station Type Date Time Source
EPKT Decoded METAR 2020/09/18 22:30 UTC NOAA

Katowice, Poland (EPKT) 50-14N 019-02E 284M
Sep 18, 2020 - 06:30 PM EDT / 2020.09.18 2230 UTC
Wind: Variable at 1 MPH (1 KT):0
Visibility: greater than 7 mile(s):0
Temperature: 37 F (3 C)
Dew Point: 37 F (3 C)
Relative Humidity: 100%
Pressure (altimeter): 30.36 in. Hg (1028 hPa)
ob: EPKT 182230Z VRB01KT CAVOK 03/03 Q1028
cycle: 22

Station Type Date Time Source
EPKT TAF 2020/09/18 18:33 UTC NOAA

TAF EPKT 181730Z 1818/1918 VRB02KT CAVOK
BECMG 1909/1911 09010KT

Example: see airport list